sensor_id;sensor_type;location;lat;lon;timestamp;pressure;altitude;pressure_sealevel;temperature;humidity
73332;BME280;61560;33.718;73.040;2022-12-07T00:01:13;95060.81;;;9.46;64.36
73332;BME280;61560;33.718;73.040;2022-12-07T00:03:43;95067.03;;;9.46;64.71
73332;BME280;61560;33.718;73.040;2022-12-07T00:06:12;95064.66;;;9.48;64.49
73332;BME280;61560;33.718;73.040;2022-12-07T00:08:41;95066.63;;;9.51;64.60
73332;BME280;61560;33.718;73.040;2022-12-07T00:11:21;95068.59;;;9.47;64.64
73332;BME280;61560;33.718;73.040;2022-12-07T00:13:59;95077.59;;;9.48;64.84
73332;BME280;61560;33.718;73.040;2022-12-07T00:16:28;95092.84;;;9.42;65.14
73332;BME280;61560;33.718;73.040;2022-12-07T00:18:56;95092.09;;;9.34;65.12
73332;BME280;61560;33.718;73.040;2022-12-07T00:21:27;95095.19;;;9.36;65.55
73332;BME280;61560;33.718;73.040;2022-12-07T00:23:56;95100.66;;;9.36;65.65
73332;BME280;61560;33.718;73.040;2022-12-07T00:26:30;95095.97;;;9.40;65.71
73332;BME280;61560;33.718;73.040;2022-12-07T00:29:04;95098.69;;;9.44;64.99
73332;BME280;61560;33.718;73.040;2022-12-07T00:31:35;95081.50;;;9.43;65.18
73332;BME280;61560;33.718;73.040;2022-12-07T00:34:09;95090.44;;;9.51;65.06
73332;BME280;61560;33.718;73.040;2022-12-07T00:36:38;95090.81;;;9.56;64.74
73332;BME280;61560;33.718;73.040;2022-12-07T00:39:05;95090.00;;;9.59;65.20
73332;BME280;61560;33.718;73.040;2022-12-07T00:41:33;95084.13;;;9.61;64.72
73332;BME280;61560;33.718;73.040;2022-12-07T00:44:17;95095.47;;;9.59;64.28
73332;BME280;61560;33.718;73.040;2022-12-07T00:46:46;95083.00;;;9.55;64.55
73332;BME280;61560;33.718;73.040;2022-12-07T00:49:13;95074.84;;;9.48;63.98
73332;BME280;61560;33.718;73.040;2022-12-07T00:51:40;95074.84;;;9.44;64.40
73332;BME280;61560;33.718;73.040;2022-12-07T00:54:07;95089.31;;;9.45;64.61
73332;BME280;61560;33.718;73.040;2022-12-07T00:56:34;95092.47;;;9.40;65.15
73332;BME280;61560;33.718;73.040;2022-12-07T00:59:03;95090.53;;;9.37;65.36
73332;BME280;61560;33.718;73.040;2022-12-07T01:01:35;95093.66;;;9.35;65.05
73332;BME280;61560;33.718;73.040;2022-12-07T01:04:03;95093.66;;;9.35;65.52
73332;BME280;61560;33.718;73.040;2022-12-07T01:06:30;95080.44;;;9.23;65.33
73332;BME280;61560;33.718;73.040;2022-12-07T01:08:58;95092.13;;;9.24;65.73
73332;BME280;61560;33.718;73.040;2022-12-07T01:11:28;95109.72;;;9.23;65.54
73332;BME280;61560;33.718;73.040;2022-12-07T01:13:57;95111.31;;;9.17;65.22
73332;BME280;61560;33.718;73.040;2022-12-07T01:16:28;95115.56;;;9.18;65.98
73332;BME280;61560;33.718;73.040;2022-12-07T01:18:57;95112.47;;;9.16;65.32
73332;BME280;61560;33.718;73.040;2022-12-07T01:21:34;95123.03;;;9.17;65.65
73332;BME280;61560;33.718;73.040;2022-12-07T01:24:05;95126.88;;;9.20;66.18
73332;BME280;61560;33.718;73.040;2022-12-07T01:26:33;95132.38;;;9.23;65.52
73332;BME280;61560;33.718;73.040;2022-12-07T01:29:00;95128.84;;;9.23;65.51
73332;BME280;61560;33.718;73.040;2022-12-07T01:31:28;95129.63;;;9.27;66.44
73332;BME280;61560;33.718;73.040;2022-12-07T01:33:57;95137.81;;;9.27;66.09
73332;BME280;61560;33.718;73.040;2022-12-07T01:36:28;95138.19;;;9.29;65.93
73332;BME280;61560;33.718;73.040;2022-12-07T01:38:59;95139.38;;;9.28;65.78
73332;BME280;61560;33.718;73.040;2022-12-07T01:41:30;95151.09;;;9.25;66.22
73332;BME280;61560;33.718;73.040;2022-12-07T01:44:31;95155.41;;;9.19;66.04
73332;BME280;61560;33.718;73.040;2022-12-07T01:47:01;95155.81;;;9.17;66.06
73332;BME280;61560;33.718;73.040;2022-12-07T01:49:42;95157.78;;;9.13;66.30
73332;BME280;61560;33.718;73.040;2022-12-07T01:52:22;95162.06;;;9.11;65.71
73332;BME280;61560;33.718;73.040;2022-12-07T01:54:56;95166.78;;;9.03;66.31
73332;BME280;61560;33.718;73.040;2022-12-07T01:57:27;95156.63;;;9.00;65.70
73332;BME280;61560;33.718;73.040;2022-12-07T01:59:55;95171.06;;;9.00;66.30
73332;BME280;61560;33.718;73.040;2022-12-07T02:02:29;95173.38;;;9.05;66.28
73332;BME280;61560;33.718;73.040;2022-12-07T02:04:59;95178.47;;;9.03;65.43
73332;BME280;61560;33.718;73.040;2022-12-07T02:07:28;95172.25;;;9.03;64.88
73332;BME280;61560;33.718;73.040;2022-12-07T02:09:56;95173.00;;;9.00;65.05
73332;BME280;61560;33.718;73.040;2022-12-07T02:12:24;95184.31;;;9.13;64.54
73332;BME280;61560;33.718;73.040;2022-12-07T02:14:52;95178.03;;;9.16;64.11
73332;BME280;61560;33.718;73.040;2022-12-07T02:17:28;95179.59;;;9.20;64.49
73332;BME280;61560;33.718;73.040;2022-12-07T02:20:33;95187.78;;;9.31;63.00
73332;BME280;61560;33.718;73.040;2022-12-07T02:29:16;95184.53;;;10.33;61.35
73332;BME280;61560;33.718;73.040;2022-12-07T02:32:03;95188.16;;;11.15;58.88
73332;BME280;61560;33.718;73.040;2022-12-07T02:34:53;95184.09;;;11.97;56.95
73332;BME280;61560;33.718;73.040;2022-12-07T02:40:29;95194.06;;;13.57;52.59
73332;BME280;61560;33.718;73.040;2022-12-07T02:45:34;95190.13;;;14.85;48.81
73332;BME280;61560;33.718;73.040;2022-12-07T02:48:05;95195.78;;;15.42;47.59
73332;BME280;61560;33.718;73.040;2022-12-07T02:50:33;95190.81;;;15.94;45.96
73332;BME280;61560;33.718;73.040;2022-12-07T02:53:01;95190.78;;;16.23;45.45
73332;BME280;61560;33.718;73.040;2022-12-07T02:55:34;95191.56;;;16.36;44.97
73332;BME280;61560;33.718;73.040;2022-12-07T02:58:12;95196.97;;;16.27;44.78
73332;BME280;61560;33.718;73.040;2022-12-07T03:00:58;95185.53;;;16.00;45.06
73332;BME280;61560;33.718;73.040;2022-12-07T03:03:35;95196.59;;;15.42;45.75
73332;BME280;61560;33.718;73.040;2022-12-07T03:06:16;95212.47;;;15.06;46.84
73332;BME280;61560;33.718;73.040;2022-12-07T03:09:04;95216.56;;;14.66;48.43
73332;BME280;61560;33.718;73.040;2022-12-07T03:12:18;95222.75;;;14.38;48.88
73332;BME280;61560;33.718;73.040;2022-12-07T03:14:52;95220.91;;;14.31;48.68
73332;BME280;61560;33.718;73.040;2022-12-07T03:17:27;95231.09;;;14.34;48.57
73332;BME280;61560;33.718;73.040;2022-12-07T03:20:00;95225.41;;;14.22;47.92
73332;BME280;61560;33.718;73.040;2022-12-07T03:22:30;95230.88;;;14.06;48.74
73332;BME280;61560;33.718;73.040;2022-12-07T03:25:07;95234.97;;;13.98;50.33
73332;BME280;61560;33.718;73.040;2022-12-07T03:27:54;95247.69;;;13.91;49.69
73332;BME280;61560;33.718;73.040;2022-12-07T03:30:32;95245.06;;;13.84;51.05
73332;BME280;61560;33.718;73.040;2022-12-07T03:33:16;95250.69;;;13.77;50.17
73332;BME280;61560;33.718;73.040;2022-12-07T03:35:58;95254.31;;;13.74;49.85
73332;BME280;61560;33.718;73.040;2022-12-07T03:41:11;95252.63;;;13.80;49.45
73332;BME280;61560;33.718;73.040;2022-12-07T03:43:40;95261.00;;;13.73;49.36
73332;BME280;61560;33.718;73.040;2022-12-07T03:46:15;95280.78;;;13.68;49.86
73332;BME280;61560;33.718;73.040;2022-12-07T03:57:38;95284.94;;;13.76;48.33
73332;BME280;61560;33.718;73.040;2022-12-07T04:00:10;95279.44;;;13.76;48.88
73332;BME280;61560;33.718;73.040;2022-12-07T04:02:41;95283.69;;;13.81;48.52
73332;BME280;61560;33.718;73.040;2022-12-07T04:05:10;95280.56;;;13.79;47.04
73332;BME280;61560;33.718;73.040;2022-12-07T04:07:37;95287.63;;;13.80;47.87
73332;BME280;61560;33.718;73.040;2022-12-07T04:10:06;95284.88;;;13.80;48.18
73332;BME280;61560;33.718;73.040;2022-12-07T04:12:33;95287.63;;;13.80;48.75
73332;BME280;61560;33.718;73.040;2022-12-07T04:15:05;95291.88;;;13.84;49.76
73332;BME280;61560;33.718;73.040;2022-12-07T04:17:33;95277.97;;;13.91;49.26
73332;BME280;61560;33.718;73.040;2022-12-07T04:19:59;95295.75;;;13.87;50.19
73332;BME280;61560;33.718;73.040;2022-12-07T04:22:27;95294.44;;;13.95;49.69
73332;BME280;61560;33.718;73.040;2022-12-07T04:24:53;95290.75;;;14.02;50.03
73332;BME280;61560;33.718;73.040;2022-12-07T04:27:21;95284.91;;;14.00;49.13
73332;BME280;61560;33.718;73.040;2022-12-07T04:29:47;95300.50;;;14.06;51.01
73332;BME280;61560;33.718;73.040;2022-12-07T04:32:15;95305.41;;;14.18;53.07
73332;BME280;61560;33.718;73.040;2022-12-07T04:34:42;95299.28;;;14.27;50.97
73332;BME280;61560;33.718;73.040;2022-12-07T04:37:10;95299.53;;;14.36;51.00
73332;BME280;61560;33.718;73.040;2022-12-07T04:39:37;95295.00;;;14.45;50.38
73332;BME280;61560;33.718;73.040;2022-12-07T04:42:04;95292.53;;;14.51;50.41
73332;BME280;61560;33.718;73.040;2022-12-07T04:44:31;95284.97;;;14.55;51.04
73332;BME280;61560;33.718;73.040;2022-12-07T04:46:58;95292.63;;;14.63;50.89
73332;BME280;61560;33.718;73.040;2022-12-07T04:49:25;95292.41;;;14.74;49.63
73332;BME280;61560;33.718;73.040;2022-12-07T04:51:52;95288.81;;;14.77;48.83
73332;BME280;61560;33.718;73.040;2022-12-07T04:54:19;95299.25;;;14.86;49.27
73332;BME280;61560;33.718;73.040;2022-12-07T04:56:47;95296.66;;;14.95;48.56
73332;BME280;61560;33.718;73.040;2022-12-07T04:59:15;95292.97;;;15.01;48.29
73332;BME280;61560;33.718;73.040;2022-12-07T05:01:44;95292.88;;;15.05;48.38
73332;BME280;61560;33.718;73.040;2022-12-07T05:04:11;95288.00;;;15.12;48.55
73332;BME280;61560;33.718;73.040;2022-12-07T05:06:39;95287.41;;;15.21;45.80
73332;BME280;61560;33.718;73.040;2022-12-07T05:09:06;95288.50;;;15.23;44.90
73332;BME280;61560;33.718;73.040;2022-12-07T05:11:35;95295.50;;;15.28;45.85
73332;BME280;61560;33.718;73.040;2022-12-07T05:14:13;95295.00;;;15.33;46.54
73332;BME280;61560;33.718;73.040;2022-12-07T05:16:41;95303.44;;;15.42;45.77
73332;BME280;61560;33.718;73.040;2022-12-07T05:19:09;95292.34;;;15.45;43.49
73332;BME280;61560;33.718;73.040;2022-12-07T05:21:36;95295.16;;;15.42;43.03
73332;BME280;61560;33.718;73.040;2022-12-07T05:24:06;95294.66;;;15.47;43.78
73332;BME280;61560;33.718;73.040;2022-12-07T05:26:34;95290.28;;;15.49;44.03
73332;BME280;61560;33.718;73.040;2022-12-07T05:29:01;95291.31;;;15.55;43.86
73332;BME280;61560;33.718;73.040;2022-12-07T05:31:29;95286.47;;;15.60;44.03
73332;BME280;61560;33.718;73.040;2022-12-07T05:33:56;95291.09;;;15.63;43.95
73332;BME280;61560;33.718;73.040;2022-12-07T05:36:24;95280.94;;;15.60;43.29
73332;BME280;61560;33.718;73.040;2022-12-07T05:38:53;95286.59;;;15.69;43.35
73332;BME280;61560;33.718;73.040;2022-12-07T05:41:20;95281.09;;;15.69;42.11
73332;BME280;61560;33.718;73.040;2022-12-07T05:44:06;95277.19;;;15.66;42.26
73332;BME280;61560;33.718;73.040;2022-12-07T05:46:33;95273.06;;;15.74;41.08
73332;BME280;61560;33.718;73.040;2022-12-07T05:49:01;95275.72;;;15.78;40.81
73332;BME280;61560;33.718;73.040;2022-12-07T05:51:27;95277.09;;;15.86;40.84
73332;BME280;61560;33.718;73.040;2022-12-07T05:53:55;95274.13;;;15.93;39.75
73332;BME280;61560;33.718;73.040;2022-12-07T05:56:22;95264.19;;;15.95;40.50
73332;BME280;61560;33.718;73.040;2022-12-07T05:58:49;95260.03;;;16.03;40.50
73332;BME280;61560;33.718;73.040;2022-12-07T06:01:36;95260.34;;;16.05;40.93
73332;BME280;61560;33.718;73.040;2022-12-07T06:04:09;95254.66;;;16.12;41.86
73332;BME280;61560;33.718;73.040;2022-12-07T06:06:40;95249.47;;;16.14;40.50
73332;BME280;61560;33.718;73.040;2022-12-07T06:09:13;95259.00;;;16.26;40.87
73332;BME280;61560;33.718;73.040;2022-12-07T06:11:42;95256.03;;;16.33;41.59
73332;BME280;61560;33.718;73.040;2022-12-07T06:14:29;95251.50;;;16.39;41.59
73332;BME280;61560;33.718;73.040;2022-12-07T06:16:55;95250.88;;;16.48;41.30
73332;BME280;61560;33.718;73.040;2022-12-07T06:19:23;95248.03;;;16.51;41.06
73332;BME280;61560;33.718;73.040;2022-12-07T06:21:50;95236.31;;;16.60;41.62
73332;BME280;61560;33.718;73.040;2022-12-07T06:24:18;95239.50;;;16.71;41.86
73332;BME280;61560;33.718;73.040;2022-12-07T06:26:45;95238.84;;;16.79;42.28
73332;BME280;61560;33.718;73.040;2022-12-07T06:29:13;95226.47;;;16.84;43.02
73332;BME280;61560;33.718;73.040;2022-12-07T06:31:40;95218.38;;;16.89;42.90
73332;BME280;61560;33.718;73.040;2022-12-07T06:34:14;95216.06;;;17.00;42.47
73332;BME280;61560;33.718;73.040;2022-12-07T06:36:42;95209.66;;;17.03;42.86
73332;BME280;61560;33.718;73.040;2022-12-07T06:39:09;95206.31;;;17.08;43.22
73332;BME280;61560;33.718;73.040;2022-12-07T06:41:38;95203.00;;;17.13;43.41
73332;BME280;61560;33.718;73.040;2022-12-07T06:44:06;95190.88;;;17.20;43.15
73332;BME280;61560;33.718;73.040;2022-12-07T06:46:34;95190.00;;;17.23;43.82
73332;BME280;61560;33.718;73.040;2022-12-07T06:49:05;95191.19;;;17.35;42.96
73332;BME280;61560;33.718;73.040;2022-12-07T06:51:34;95183.66;;;17.35;42.76
73332;BME280;61560;33.718;73.040;2022-12-07T06:54:08;95178.22;;;17.44;43.22
73332;BME280;61560;33.718;73.040;2022-12-07T06:56:37;95177.22;;;17.51;42.79
73332;BME280;61560;33.718;73.040;2022-12-07T06:59:06;95176.78;;;17.52;43.13
73332;BME280;61560;33.718;73.040;2022-12-07T07:01:35;95166.66;;;17.58;43.34
73332;BME280;61560;33.718;73.040;2022-12-07T07:04:03;95160.88;;;17.65;42.69
73332;BME280;61560;33.718;73.040;2022-12-07T07:06:37;95156.94;;;17.75;42.26
73332;BME280;61560;33.718;73.040;2022-12-07T07:09:04;95150.84;;;17.80;42.50
73332;BME280;61560;33.718;73.040;2022-12-07T07:11:32;95140.72;;;17.86;42.43
73332;BME280;61560;33.718;73.040;2022-12-07T07:13:59;95139.03;;;17.89;41.68
73332;BME280;61560;33.718;73.040;2022-12-07T07:16:31;95136.91;;;17.93;41.66
73332;BME280;61560;33.718;73.040;2022-12-07T07:18:58;95136.91;;;17.93;41.10
73332;BME280;61560;33.718;73.040;2022-12-07T07:21:25;95141.69;;;17.92;41.19
73332;BME280;61560;33.718;73.040;2022-12-07T07:23:52;95132.66;;;18.01;41.27
73332;BME280;61560;33.718;73.040;2022-12-07T07:26:20;95130.84;;;18.07;41.66
73332;BME280;61560;33.718;73.040;2022-12-07T07:28:47;95123.16;;;18.11;41.05
73332;BME280;61560;33.718;73.040;2022-12-07T07:31:15;95119.81;;;18.16;41.29
73332;BME280;61560;33.718;73.040;2022-12-07T07:33:44;95116.88;;;18.20;40.57
73332;BME280;61560;33.718;73.040;2022-12-07T07:36:13;95103.34;;;18.22;40.11
73332;BME280;61560;33.718;73.040;2022-12-07T07:38:40;95107.84;;;18.28;39.88
73332;BME280;61560;33.718;73.040;2022-12-07T07:41:09;95102.94;;;18.32;39.95
73332;BME280;61560;33.718;73.040;2022-12-07T07:43:36;95099.56;;;18.37;40.21
73332;BME280;61560;33.718;73.040;2022-12-07T07:46:03;95091.78;;;18.45;38.78
73332;BME280;61560;33.718;73.040;2022-12-07T07:48:30;95083.31;;;18.48;37.94
73332;BME280;61560;33.718;73.040;2022-12-07T07:50:59;95077.47;;;18.55;37.62
73332;BME280;61560;33.718;73.040;2022-12-07T07:53:26;95068.53;;;18.60;36.87
73332;BME280;61560;33.718;73.040;2022-12-07T07:55:55;95059.63;;;18.65;35.57
73332;BME280;61560;33.718;73.040;2022-12-07T07:58:22;95058.53;;;18.72;35.68
73332;BME280;61560;33.718;73.040;2022-12-07T08:00:49;95055.19;;;18.77;35.52
73332;BME280;61560;33.718;73.040;2022-12-07T08:03:17;95043.91;;;18.80;34.91
73332;BME280;61560;33.718;73.040;2022-12-07T08:05:46;95042.53;;;18.85;34.76
73332;BME280;61560;33.718;73.040;2022-12-07T08:08:12;95048.25;;;18.91;34.43
73332;BME280;61560;33.718;73.040;2022-12-07T08:10:40;95037.47;;;18.93;35.05
73332;BME280;61560;33.718;73.040;2022-12-07T08:13:06;95042.09;;;18.96;34.63
73332;BME280;61560;33.718;73.040;2022-12-07T08:15:45;95033.63;;;18.99;34.29
73332;BME280;61560;33.718;73.040;2022-12-07T08:18:14;95027.91;;;19.03;34.19
73332;BME280;61560;33.718;73.040;2022-12-07T08:20:43;95023.75;;;19.07;32.77
73332;BME280;61560;33.718;73.040;2022-12-07T08:23:11;95017.59;;;19.12;32.05
73332;BME280;61560;33.718;73.040;2022-12-07T08:25:39;95021.75;;;19.17;31.16
73332;BME280;61560;33.718;73.040;2022-12-07T08:28:07;95014.66;;;19.16;30.88
73332;BME280;61560;33.718;73.040;2022-12-07T08:30:37;95016.03;;;19.20;30.83
73332;BME280;61560;33.718;73.040;2022-12-07T08:33:04;95012.78;;;19.22;30.94
73332;BME280;61560;33.718;73.040;2022-12-07T08:35:33;95012.63;;;19.25;30.28
73332;BME280;61560;33.718;73.040;2022-12-07T08:38:00;95007.69;;;19.29;29.92
73332;BME280;61560;33.718;73.040;2022-12-07T08:40:29;95012.94;;;19.27;29.21
73332;BME280;61560;33.718;73.040;2022-12-07T08:42:57;95004.16;;;19.29;29.11
73332;BME280;61560;33.718;73.040;2022-12-07T08:45:24;94999.06;;;19.27;29.33
73332;BME280;61560;33.718;73.040;2022-12-07T08:48:00;94998.13;;;19.30;29.38
73332;BME280;61560;33.718;73.040;2022-12-07T08:50:45;95000.13;;;19.30;28.84
73332;BME280;61560;33.718;73.040;2022-12-07T08:53:12;94995.81;;;19.29;29.45
73332;BME280;61560;33.718;73.040;2022-12-07T08:55:41;94995.53;;;19.27;29.64
73332;BME280;61560;33.718;73.040;2022-12-07T08:58:09;94998.75;;;19.25;29.98
73332;BME280;61560;33.718;73.040;2022-12-07T09:00:37;94988.28;;;19.20;30.20
73332;BME280;61560;33.718;73.040;2022-12-07T09:03:03;94985.63;;;19.26;30.40
73332;BME280;61560;33.718;73.040;2022-12-07T09:05:32;94984.56;;;19.23;30.77
73332;BME280;61560;33.718;73.040;2022-12-07T09:08:02;94987.81;;;19.22;30.46
73332;BME280;61560;33.718;73.040;2022-12-07T09:10:29;94981.16;;;19.19;30.84
73332;BME280;61560;33.718;73.040;2022-12-07T09:12:56;94979.31;;;19.16;31.12
73332;BME280;61560;33.718;73.040;2022-12-07T09:15:30;94973.16;;;19.12;31.41
73332;BME280;61560;33.718;73.040;2022-12-07T09:17:58;94973.63;;;19.11;31.42
73332;BME280;61560;33.718;73.040;2022-12-07T09:20:25;94972.84;;;19.10;31.20
73332;BME280;61560;33.718;73.040;2022-12-07T09:22:53;94965.00;;;19.09;31.79
73332;BME280;61560;33.718;73.040;2022-12-07T09:25:20;94968.38;;;19.13;31.80
73332;BME280;61560;33.718;73.040;2022-12-07T09:27:47;94965.31;;;19.11;31.27
73332;BME280;61560;33.718;73.040;2022-12-07T09:30:15;94970.38;;;19.12;30.71
73332;BME280;61560;33.718;73.040;2022-12-07T09:32:42;94960.81;;;19.13;30.70
73332;BME280;61560;33.718;73.040;2022-12-07T09:35:09;94954.19;;;19.11;30.75
73332;BME280;61560;33.718;73.040;2022-12-07T09:37:36;94960.97;;;19.10;30.72
73332;BME280;61560;33.718;73.040;2022-12-07T09:40:04;94963.13;;;19.15;30.58
73332;BME280;61560;33.718;73.040;2022-12-07T09:42:38;94958.03;;;19.13;30.68
73332;BME280;61560;33.718;73.040;2022-12-07T09:45:15;94958.03;;;19.13;31.25
73332;BME280;61560;33.718;73.040;2022-12-07T09:47:44;94962.22;;;19.09;31.82
73332;BME280;61560;33.718;73.040;2022-12-07T09:50:18;94964.69;;;19.07;31.83
73332;BME280;61560;33.718;73.040;2022-12-07T09:52:49;94962.06;;;19.03;31.58
73332;BME280;61560;33.718;73.040;2022-12-07T09:55:28;94960.66;;;18.99;31.45
73332;BME280;61560;33.718;73.040;2022-12-07T09:57:58;94964.69;;;18.98;31.71
73332;BME280;61560;33.718;73.040;2022-12-07T10:00:25;94965.91;;;18.97;31.68
73332;BME280;61560;33.718;73.040;2022-12-07T10:03:00;94963.75;;;18.92;32.07
73332;BME280;61560;33.718;73.040;2022-12-07T10:05:43;94948.78;;;18.89;31.82
73332;BME280;61560;33.718;73.040;2022-12-07T10:08:13;94943.09;;;18.84;32.07
73332;BME280;61560;33.718;73.040;2022-12-07T10:10:48;94949.13;;;18.82;31.47
73332;BME280;61560;33.718;73.040;2022-12-07T10:13:22;94952.50;;;18.77;31.03
73332;BME280;61560;33.718;73.040;2022-12-07T10:16:00;94936.16;;;18.70;31.11
73332;BME280;61560;33.718;73.040;2022-12-07T10:18:38;94941.25;;;18.71;31.77
73332;BME280;61560;33.718;73.040;2022-12-07T10:21:12;94944.34;;;18.73;31.82
73332;BME280;61560;33.718;73.040;2022-12-07T10:23:42;94935.41;;;18.69;31.98
73332;BME280;61560;33.718;73.040;2022-12-07T10:29:33;94935.38;;;18.60;32.35
73332;BME280;61560;33.718;73.040;2022-12-07T10:32:46;94933.53;;;18.57;32.02
73332;BME280;61560;33.718;73.040;2022-12-07T10:34:51;94923.97;;;18.49;32.46
73332;BME280;61560;33.718;73.040;2022-12-07T10:37:41;94933.53;;;18.48;32.50
73332;BME280;61560;33.718;73.040;2022-12-07T10:40:25;94934.44;;;18.45;32.91
73332;BME280;61560;33.718;73.040;2022-12-07T10:46:07;94936.88;;;18.34;33.37
73332;BME280;61560;33.718;73.040;2022-12-07T10:48:55;94945.00;;;18.29;34.21
73332;BME280;61560;33.718;73.040;2022-12-07T10:54:42;94943.91;;;18.17;34.72
73332;BME280;61560;33.718;73.040;2022-12-07T11:00:11;94958.50;;;18.09;34.37
73332;BME280;61560;33.718;73.040;2022-12-07T11:03:17;94952.03;;;18.02;34.69
73332;BME280;61560;33.718;73.040;2022-12-07T11:09:00;94949.19;;;17.84;36.25
73332;BME280;61560;33.718;73.040;2022-12-07T11:14:19;94945.75;;;17.71;37.24
73332;BME280;61560;33.718;73.040;2022-12-07T11:17:11;94954.81;;;17.63;37.29
73332;BME280;61560;33.718;73.040;2022-12-07T11:23:01;94931.19;;;17.49;37.92
73332;BME280;61560;33.718;73.040;2022-12-07T11:34:37;94939.31;;;17.22;40.14
73332;BME280;61560;33.718;73.040;2022-12-07T11:36:44;94928.97;;;17.13;38.79
73332;BME280;61560;33.718;73.040;2022-12-07T11:39:35;94932.06;;;17.15;37.84
73332;BME280;61560;33.718;73.040;2022-12-07T11:42:36;94933.09;;;17.09;38.22
73332;BME280;61560;33.718;73.040;2022-12-07T11:45:20;94922.75;;;17.00;37.54
73332;BME280;61560;33.718;73.040;2022-12-07T11:48:10;94931.50;;;16.99;37.31
73332;BME280;61560;33.718;73.040;2022-12-07T11:50:51;94926.53;;;16.94;36.81
73332;BME280;61560;33.718;73.040;2022-12-07T11:53:33;94919.56;;;16.89;36.63
73332;BME280;61560;33.718;73.040;2022-12-07T11:56:15;94917.22;;;16.79;37.15
73332;BME280;61560;33.718;73.040;2022-12-07T11:58:57;94928.66;;;16.68;37.54
73332;BME280;61560;33.718;73.040;2022-12-07T12:01:46;94931.34;;;16.59;37.55
73332;BME280;61560;33.718;73.040;2022-12-07T12:07:17;94913.66;;;16.44;37.66
73332;BME280;61560;33.718;73.040;2022-12-07T12:18:25;94917.66;;;16.09;39.89
73332;BME280;61560;33.718;73.040;2022-12-07T12:21:13;94919.75;;;16.05;39.42
73332;BME280;61560;33.718;73.040;2022-12-07T12:24:16;94912.47;;;15.98;39.16
73332;BME280;61560;33.718;73.040;2022-12-07T12:26:55;94926.28;;;15.98;38.79
73332;BME280;61560;33.718;73.040;2022-12-07T12:29:32;94918.09;;;15.95;38.43
73332;BME280;61560;33.718;73.040;2022-12-07T12:37:52;94932.69;;;15.95;37.37
73332;BME280;61560;33.718;73.040;2022-12-07T12:42:57;94940.97;;;15.83;38.06
73332;BME280;61560;33.718;73.040;2022-12-07T12:45:25;94934.16;;;15.75;39.00
73332;BME280;61560;33.718;73.040;2022-12-07T12:47:57;94931.72;;;15.64;39.61
73332;BME280;61560;33.718;73.040;2022-12-07T12:50:37;94937.13;;;15.55;40.50
73332;BME280;61560;33.718;73.040;2022-12-07T13:00:47;94956.38;;;15.17;42.26
73332;BME280;61560;33.718;73.040;2022-12-07T13:03:29;94955.81;;;15.10;42.93
73332;BME280;61560;33.718;73.040;2022-12-07T13:08:56;94953.03;;;14.97;43.60
73332;BME280;61560;33.718;73.040;2022-12-07T13:11:32;94959.50;;;14.91;43.76
73332;BME280;61560;33.718;73.040;2022-12-07T13:20:00;94962.31;;;14.74;46.01
73332;BME280;61560;33.718;73.040;2022-12-07T13:25:10;94967.34;;;14.63;46.09
73332;BME280;61560;33.718;73.040;2022-12-07T13:27:41;94964.00;;;14.56;45.60
73332;BME280;61560;33.718;73.040;2022-12-07T13:30:15;94952.94;;;14.43;45.83
73332;BME280;61560;33.718;73.040;2022-12-07T13:32:43;94966.72;;;14.43;46.09
73332;BME280;61560;33.718;73.040;2022-12-07T13:35:37;94969.56;;;14.40;45.13
73332;BME280;61560;33.718;73.040;2022-12-07T13:41:02;94979.31;;;14.28;45.61
73332;BME280;61560;33.718;73.040;2022-12-07T13:43:30;94982.47;;;14.27;45.37
73332;BME280;61560;33.718;73.040;2022-12-07T13:45:58;94981.38;;;14.24;46.12
73332;BME280;61560;33.718;73.040;2022-12-07T13:48:37;94984.19;;;14.21;46.37
73332;BME280;61560;33.718;73.040;2022-12-07T13:51:26;94993.31;;;14.18;47.02
73332;BME280;61560;33.718;73.040;2022-12-07T13:54:01;94992.72;;;14.10;46.75
73332;BME280;61560;33.718;73.040;2022-12-07T13:56:35;94998.22;;;14.10;47.06
73332;BME280;61560;33.718;73.040;2022-12-07T13:59:07;94989.28;;;14.06;46.76
73332;BME280;61560;33.718;73.040;2022-12-07T14:01:37;94995.22;;;14.05;46.96
73332;BME280;61560;33.718;73.040;2022-12-07T14:06:56;94994.09;;;14.02;47.50
73332;BME280;61560;33.718;73.040;2022-12-07T14:09:26;94993.50;;;13.94;47.33
73332;BME280;61560;33.718;73.040;2022-12-07T14:11:56;94998.41;;;13.87;47.82
73332;BME280;61560;33.718;73.040;2022-12-07T14:14:29;94995.66;;;13.87;47.72
73332;BME280;61560;33.718;73.040;2022-12-07T14:17:16;95000.97;;;13.78;48.68
73332;BME280;61560;33.718;73.040;2022-12-07T14:22:35;95011.72;;;13.72;49.35
73332;BME280;61560;33.718;73.040;2022-12-07T14:28:00;95020.34;;;13.55;49.64
73332;BME280;61560;33.718;73.040;2022-12-07T14:30:32;95016.97;;;13.47;50.07
73332;BME280;61560;33.718;73.040;2022-12-07T14:33:02;95020.66;;;13.41;50.31
73332;BME280;61560;33.718;73.040;2022-12-07T14:35:30;95018.00;;;13.37;50.35
73332;BME280;61560;33.718;73.040;2022-12-07T14:37:59;95015.25;;;13.37;50.18
73332;BME280;61560;33.718;73.040;2022-12-07T14:40:29;95021.19;;;13.36;50.23
73332;BME280;61560;33.718;73.040;2022-12-07T14:43:02;95023.94;;;13.36;50.25
73332;BME280;61560;33.718;73.040;2022-12-07T14:45:31;95023.97;;;13.32;51.26
73332;BME280;61560;33.718;73.040;2022-12-07T14:47:59;95023.00;;;13.23;51.46
73332;BME280;61560;33.718;73.040;2022-12-07T14:50:26;95015.28;;;13.18;52.00
73332;BME280;61560;33.718;73.040;2022-12-07T14:53:00;95024.78;;;13.13;51.86
73332;BME280;61560;33.718;73.040;2022-12-07T14:55:31;95027.19;;;13.11;51.49
73332;BME280;61560;33.718;73.040;2022-12-07T14:57:59;95031.19;;;13.06;51.54
73332;BME280;61560;33.718;73.040;2022-12-07T15:00:30;95040.22;;;13.07;52.12
73332;BME280;61560;33.718;73.040;2022-12-07T15:02:58;95041.00;;;13.07;51.93